Time;durP1;ratioP1;P1;durP2;ratioP2;P2;SDS_P1;SDS_P2;PMS_P1;PMS_P2;Temp;Humidity;BMP_temperature;BMP_pressure;BME280_temperature;BME280_humidity;BME280_pressure;Samples;Min_cycle;Max_cycle;Signal;HPM_P1;HPM_P2
2023/06/07 00:00:27;;;;;;;5.53;2.17;;;22.50;54.40;;;;;;5071493;28;20555;-62
2023/06/07 00:02:56;;;;;;;4.25;2.35;;;22.50;54.40;;;;;;5072816;28;20041;-62
2023/06/07 00:05:22;;;;;;;3.67;2.08;;;22.50;54.50;;;;;;5072018;28;20052;-61
2023/06/07 00:07:48;;;;;;;4.75;2.50;;;22.40;54.40;;;;;;5071876;28;20048;-61
2023/06/07 00:10:13;;;;;;;3.90;2.13;;;22.40;54.40;;;;;;5072385;28;20048;-61
2023/06/07 00:12:40;;;;;;;4.50;2.35;;;22.40;54.40;;;;;;5072395;28;20043;-62
2023/06/07 00:15:07;;;;;;;4.35;2.25;;;22.40;54.40;;;;;;5071306;28;20373;-61
2023/06/07 00:17:33;;;;;;;4.88;2.38;;;22.40;54.40;;;;;;5071403;28;20556;-62
2023/06/07 00:19:58;;;;;;;4.15;2.20;;;22.40;54.40;;;;;;5072392;28;20115;-61
2023/06/07 00:22:25;;;;;;;4.38;2.28;;;22.40;54.40;;;;;;5071295;28;20052;-61
2023/06/07 00:24:51;;;;;;;4.25;2.20;;;22.40;54.40;;;;;;5072591;28;20044;-61
2023/06/07 00:27:17;;;;;;;3.65;2.25;;;22.40;54.40;;;;;;5071952;28;20056;-61
2023/06/07 00:29:43;;;;;;;4.07;2.30;;;22.40;54.40;;;;;;5072035;28;20049;-61
2023/06/07 00:32:08;;;;;;;4.65;2.17;;;22.40;54.40;;;;;;5072164;28;20044;-61
2023/06/07 00:34:34;;;;;;;4.68;2.30;;;22.30;54.40;;;;;;5074270;28;20511;-61
2023/06/07 00:36:59;;;;;;;4.15;2.10;;;22.40;54.40;;;;;;5075705;28;20048;-62
2023/06/07 00:39:25;;;;;;;4.55;2.30;;;22.30;54.40;;;;;;5075778;28;20455;-61
2023/06/07 00:41:52;;;;;;;4.18;2.08;;;22.30;54.40;;;;;;5076346;28;20071;-61
2023/06/07 00:44:17;;;;;;;3.78;1.92;;;22.30;54.40;;;;;;5075190;28;20032;-61
2023/06/07 00:46:43;;;;;;;4.47;2.30;;;22.30;54.40;;;;;;5076174;28;20392;-61
2023/06/07 00:49:10;;;;;;;3.75;2.13;;;22.30;54.40;;;;;;5075258;28;20041;-61
2023/06/07 00:51:36;;;;;;;4.15;2.30;;;22.30;54.40;;;;;;5075749;28;20109;-61
2023/06/07 00:54:03;;;;;;;4.28;2.20;;;22.30;54.40;;;;;;5074919;28;20419;-61
2023/06/07 00:56:28;;;;;;;3.63;1.92;;;22.30;54.40;;;;;;5073626;28;20127;-61
2023/06/07 00:58:54;;;;;;;3.55;2.03;;;22.30;54.40;;;;;;5074756;28;20163;-62
2023/06/07 01:01:19;;;;;;;5.45;2.40;;;22.30;54.40;;;;;;5075600;28;20059;-61
2023/06/07 01:03:45;;;;;;;4.60;2.20;;;22.30;54.40;;;;;;5074930;28;20051;-62
2023/06/07 01:06:13;;;;;;;4.72;2.35;;;22.30;54.40;;;;;;5075183;28;20055;-61
2023/06/07 01:08:39;;;;;;;4.85;2.33;;;22.30;54.40;;;;;;5076277;28;20102;-61
2023/06/07 01:11:04;;;;;;;4.05;2.17;;;22.30;54.40;;;;;;5074876;28;20439;-61
2023/06/07 01:13:30;;;;;;;5.25;2.17;;;22.20;54.40;;;;;;5074047;28;20518;-61
2023/06/07 01:15:55;;;;;;;4.88;2.60;;;22.20;54.40;;;;;;5075360;28;20036;-61
2023/06/07 01:18:24;;;;;;;4.40;2.22;;;22.20;54.40;;;;;;5074151;28;20132;-61
2023/06/07 01:20:54;;;;;;;4.45;2.60;;;22.20;54.40;;;;;;5057880;28;20525;-61
2023/06/07 01:23:31;;;;;;;6.00;2.13;;;22.20;54.40;;;;;;5057760;28;20040;-61
2023/06/07 01:25:58;;;;;;;5.03;2.10;;;22.20;54.30;;;;;;5073487;28;20377;-61
2023/06/07 01:28:28;;;;;;;4.30;2.20;;;22.20;54.40;;;;;;5073563;28;20061;-61
2023/06/07 01:30:54;;;;;;;4.60;2.50;;;22.20;54.50;;;;;;5074189;28;20052;-61
2023/06/07 01:33:19;;;;;;;5.47;2.30;;;22.20;54.40;;;;;;5073097;28;20396;-61
2023/06/07 01:35:45;;;;;;;4.88;2.40;;;22.20;54.40;;;;;;5075216;28;20052;-61
2023/06/07 01:38:11;;;;;;;4.22;2.20;;;22.20;54.50;;;;;;5073746;28;20121;-61
2023/06/07 01:40:37;;;;;;;5.47;2.25;;;22.20;54.50;;;;;;5074440;28;20087;-61
2023/06/07 01:43:02;;;;;;;4.53;2.20;;;22.20;54.50;;;;;;5057321;28;20553;-62
2023/06/07 01:45:29;;;;;;;4.13;2.35;;;22.20;54.50;;;;;;5038230;28;20041;-61
2023/06/07 01:47:55;;;;;;;4.13;2.38;;;22.20;54.50;;;;;;5073803;28;20071;-61
2023/06/07 01:50:21;;;;;;;4.38;2.15;;;22.20;54.50;;;;;;5056653;28;20392;-61
2023/06/07 01:52:47;;;;;;;3.50;2.10;;;22.20;54.50;;;;;;5073903;28;20776;-61
2023/06/07 01:55:12;;;;;;;3.72;2.13;;;22.10;54.50;;;;;;5074452;28;20131;-61
2023/06/07 01:57:51;;;;;;;4.55;2.40;;;22.20;54.50;;;;;;5073737;28;20044;-61
2023/06/07 02:00:32;;;;;;;3.70;1.77;;;22.10;54.50;;;;;;5072393;28;20059;-61
2023/06/07 02:03:28;;;;;;;4.10;2.13;;;22.10;54.50;;;;;;5056962;28;20045;-61
2023/06/07 02:05:56;;;;;;;5.43;2.20;;;22.10;54.40;;;;;;5074011;28;20048;-62
2023/06/07 02:08:30;;;;;;;4.97;2.15;;;22.10;54.50;;;;;;5073466;28;20093;-62
2023/06/07 02:10:55;;;;;;;4.47;2.00;;;22.10;54.50;;;;;;5073664;28;20060;-61
2023/06/07 02:13:21;;;;;;;4.95;2.25;;;22.10;54.50;;;;;;5073129;28;20036;-62
2023/06/07 02:15:46;;;;;;;4.22;1.90;;;22.10;54.50;;;;;;5072379;28;20093;-61
2023/06/07 02:18:12;;;;;;;4.10;1.95;;;22.10;54.50;;;;;;5072857;28;20133;-61
2023/06/07 02:20:38;;;;;;;3.58;1.90;;;22.10;54.50;;;;;;5073337;28;20190;-62
2023/06/07 02:23:03;;;;;;;6.03;2.45;;;22.10;54.50;;;;;;5074283;28;20045;-61
2023/06/07 02:25:30;;;;;;;4.10;2.17;;;22.00;54.50;;;;;;5072716;28;20048;-61
2023/06/07 02:27:57;;;;;;;4.63;2.10;;;22.00;54.50;;;;;;5073265;28;20053;-61
2023/06/07 02:30:22;;;;;;;3.85;1.88;;;22.00;54.50;;;;;;5072415;28;20106;-61
2023/06/07 02:32:49;;;;;;;3.90;2.03;;;22.00;54.50;;;;;;5073930;28;20044;-61
2023/06/07 02:35:16;;;;;;;3.83;2.15;;;22.10;54.50;;;;;;5072951;28;20114;-61
2023/06/07 02:37:42;;;;;;;3.97;1.90;;;22.00;54.50;;;;;;5073743;28;20450;-61
2023/06/07 02:40:10;;;;;;;5.32;2.38;;;22.00;54.50;;;;;;5072529;28;20052;-61
2023/06/07 02:42:36;;;;;;;5.78;2.10;;;22.00;54.50;;;;;;5073001;28;20044;-61
2023/06/07 02:45:03;;;;;;;4.70;2.10;;;22.00;54.50;;;;;;5073926;28;20062;-61
2023/06/07 02:47:31;;;;;;;4.13;2.13;;;22.00;54.50;;;;;;5073429;28;20040;-61
2023/06/07 02:49:57;;;;;;;3.58;2.00;;;22.00;54.50;;;;;;5072498;28;20040;-61
2023/06/07 02:52:23;;;;;;;3.83;2.20;;;22.00;54.50;;;;;;5073434;28;20063;-61
2023/06/07 02:54:49;;;;;;;3.72;2.15;;;22.00;54.60;;;;;;5072284;28;20056;-61
2023/06/07 02:57:15;;;;;;;3.60;2.20;;;22.00;54.50;;;;;;5072451;28;20036;-61
2023/06/07 02:59:41;;;;;;;3.95;2.20;;;22.00;54.50;;;;;;5073726;28;20500;-61
2023/06/07 03:02:06;;;;;;;5.55;2.08;;;22.00;54.60;;;;;;5073144;28;20107;-61
2023/06/07 03:04:32;;;;;;;4.30;2.22;;;22.00;54.60;;;;;;5072754;28;20502;-61
2023/06/07 03:06:58;;;;;;;3.33;1.92;;;22.00;54.60;;;;;;5073470;28;20047;-62
2023/06/07 03:09:24;;;;;;;3.38;2.08;;;21.90;54.50;;;;;;5073064;28;20040;-61
2023/06/07 03:11:50;;;;;;;5.60;2.50;;;21.90;54.50;;;;;;5072540;28;20040;-61
2023/06/07 03:14:18;;;;;;;3.63;1.80;;;22.00;54.60;;;;;;5072970;28;20040;-61
2023/06/07 03:16:44;;;;;;;4.82;2.13;;;21.90;54.50;;;;;;5073383;28;20178;-61
2023/06/07 03:19:10;;;;;;;4.78;2.35;;;21.90;54.50;;;;;;5071962;28;20119;-61
2023/06/07 03:21:40;;;;;;;4.95;2.30;;;21.90;54.50;;;;;;5073039;28;20109;-61
2023/06/07 03:24:06;;;;;;;4.28;1.95;;;21.90;54.50;;;;;;5072278;28;20186;-61
2023/06/07 03:26:32;;;;;;;4.28;1.80;;;21.90;54.50;;;;;;5072987;28;20482;-61
2023/06/07 03:28:57;;;;;;;4.18;2.13;;;21.90;54.50;;;;;;5072917;28;20098;-61
2023/06/07 03:31:23;;;;;;;5.80;1.70;;;21.90;54.50;;;;;;5072151;28;20044;-62
2023/06/07 03:33:49;;;;;;;3.63;2.00;;;21.90;54.50;;;;;;5073286;28;20123;-61
2023/06/07 03:36:17;;;;;;;3.00;1.88;;;21.90;54.50;;;;;;5072722;28;20155;-62
2023/06/07 03:38:42;;;;;;;3.90;1.85;;;21.90;54.50;;;;;;5072235;28;20048;-61
2023/06/07 03:41:08;;;;;;;4.07;1.75;;;21.80;54.50;;;;;;5072740;28;20043;-61
2023/06/07 03:43:33;;;;;;;4.05;1.92;;;21.90;54.60;;;;;;5073063;28;20400;-62
2023/06/07 03:45:59;;;;;;;3.15;1.90;;;21.90;54.60;;;;;;5071959;28;20438;-62
2023/06/07 03:48:25;;;;;;;4.43;1.90;;;21.80;54.50;;;;;;5072573;28;20857;-61
2023/06/07 03:50:50;;;;;;;2.95;1.80;;;21.90;54.60;;;;;;5072520;28;20040;-62
2023/06/07 03:53:16;;;;;;;3.85;1.70;;;21.80;54.50;;;;;;5071856;28;20094;-61
2023/06/07 03:55:42;;;;;;;5.18;1.92;;;21.80;54.50;;;;;;5072932;28;20045;-61
2023/06/07 03:58:08;;;;;;;4.00;1.77;;;21.80;54.50;;;;;;5072653;28;20049;-61
2023/06/07 04:00:34;;;;;;;3.72;2.15;;;21.80;54.50;;;;;;5070029;28;20344;-61
2023/06/07 04:02:59;;;;;;;3.60;1.98;;;21.80;54.50;;;;;;5065827;28;20521;-61
2023/06/07 04:05:26;;;;;;;3.08;1.90;;;21.80;54.50;;;;;;5071382;28;20412;-61
2023/06/07 04:07:53;;;;;;;3.78;1.77;;;21.80;54.50;;;;;;5071246;28;20045;-61
2023/06/07 04:10:18;;;;;;;4.40;1.70;;;21.80;54.50;;;;;;5075528;28;20041;-61
2023/06/07 04:12:45;;;;;;;5.03;1.90;;;21.80;54.50;;;;;;5076908;28;20040;-61
2023/06/07 04:15:10;;;;;;;4.38;1.65;;;21.80;54.50;;;;;;5075855;28;20059;-62
2023/06/07 04:17:36;;;;;;;6.25;1.90;;;21.70;54.50;;;;;;5076508;28;20049;-61
2023/06/07 04:20:01;;;;;;;4.35;1.92;;;21.80;54.50;;;;;;5075225;28;20055;-62
2023/06/07 04:22:27;;;;;;;3.72;1.92;;;21.80;54.50;;;;;;5075382;28;20044;-62
2023/06/07 04:24:53;;;;;;;4.15;1.70;;;21.80;54.50;;;;;;5076649;28;20041;-61
2023/06/07 04:27:19;;;;;;;3.15;1.70;;;21.80;54.50;;;;;;5075323;28;20516;-62
2023/06/07 04:29:48;;;;;;;5.05;2.10;;;21.70;54.50;;;;;;5076389;28;20084;-61
2023/06/07 04:32:18;;;;;;;3.42;1.60;;;21.80;54.50;;;;;;5075815;28;20037;-61
2023/06/07 04:34:47;;;;;;;5.15;1.95;;;21.70;54.50;;;;;;5075676;28;20040;-61
2023/06/07 04:37:13;;;;;;;5.28;2.00;;;21.80;54.50;;;;;;5076083;28;20075;-61
2023/06/07 04:39:40;;;;;;;3.08;1.65;;;21.80;54.50;;;;;;5075122;28;20060;-61
2023/06/07 04:42:06;;;;;;;4.47;1.83;;;21.80;54.50;;;;;;5074019;28;20083;-61
2023/06/07 04:44:32;;;;;;;3.72;1.70;;;21.70;54.50;;;;;;5075877;28;20059;-61
2023/06/07 04:46:59;;;;;;;4.88;1.70;;;21.70;54.50;;;;;;5074745;28;20044;-62
2023/06/07 04:49:25;;;;;;;3.67;1.70;;;21.70;54.50;;;;;;5075029;28;20040;-61
2023/06/07 04:51:52;;;;;;;3.75;1.80;;;21.70;54.50;;;;;;5075931;28;20040;-61
2023/06/07 04:54:21;;;;;;;3.45;1.90;;;21.70;54.50;;;;;;5075583;28;20149;-62
2023/06/07 04:56:46;;;;;;;4.93;1.95;;;21.70;54.50;;;;;;5075204;28;20040;-61
2023/06/07 04:59:13;;;;;;;3.97;1.90;;;21.70;54.50;;;;;;5075645;28;20046;-62
2023/06/07 05:01:41;;;;;;;4.43;1.92;;;21.70;54.50;;;;;;5074397;28;20044;-61
2023/06/07 05:04:06;;;;;;;3.15;1.65;;;21.70;54.60;;;;;;5074769;28;20048;-62
2023/06/07 05:06:36;;;;;;;3.88;1.75;;;21.70;54.60;;;;;;5075749;28;20041;-61
2023/06/07 05:09:05;;;;;;;3.88;1.73;;;21.70;54.60;;;;;;5075635;28;20037;-62
2023/06/07 05:11:31;;;;;;;4.40;1.83;;;21.70;54.60;;;;;;5075020;28;20460;-62
2023/06/07 05:13:56;;;;;;;3.28;1.70;;;21.70;54.60;;;;;;5075344;28;20538;-61
2023/06/07 05:16:24;;;;;;;3.90;1.85;;;21.70;54.60;;;;;;5075306;28;20051;-61
2023/06/07 05:18:49;;;;;;;3.93;1.50;;;21.70;54.60;;;;;;5074797;28;20484;-62
2023/06/07 05:21:15;;;;;;;4.50;1.90;;;21.70;54.60;;;;;;5075112;28;20364;-62
2023/06/07 05:23:41;;;;;;;4.18;1.80;;;21.70;54.70;;;;;;5074632;28;20063;-62
2023/06/07 05:26:07;;;;;;;3.53;1.70;;;21.70;54.70;;;;;;5074811;28;20504;-62
2023/06/07 05:28:34;;;;;;;4.30;1.83;;;21.70;54.70;;;;;;5075507;28;20086;-61
2023/06/07 05:31:01;;;;;;;4.30;1.58;;;21.70;54.70;;;;;;5074615;28;20095;-61
2023/06/07 05:33:28;;;;;;;2.83;1.45;;;21.60;54.60;;;;;;5074984;28;20044;-61
2023/06/07 05:35:54;;;;;;;3.08;1.52;;;21.70;54.70;;;;;;5075324;28;20059;-62
2023/06/07 05:38:20;;;;;;;4.68;1.80;;;21.70;54.70;;;;;;5074053;28;20037;-61
2023/06/07 05:40:46;;;;;;;3.10;1.50;;;21.60;54.60;;;;;;5075017;28;20044;-61
2023/06/07 05:43:11;;;;;;;3.72;1.60;;;21.70;54.70;;;;;;5073547;28;20048;-61
2023/06/07 05:45:37;;;;;;;3.63;1.65;;;21.70;54.70;;;;;;5074314;28;20049;-61
2023/06/07 05:48:02;;;;;;;3.67;1.58;;;21.60;54.70;;;;;;5075101;28;20110;-61
2023/06/07 05:50:28;;;;;;;3.63;1.67;;;21.60;54.70;;;;;;5074544;28;20036;-61
2023/06/07 05:52:57;;;;;;;3.22;1.67;;;21.60;54.70;;;;;;5072757;28;20093;-61
2023/06/07 05:55:26;;;;;;;3.63;1.67;;;21.60;54.70;;;;;;5074599;28;20379;-61
2023/06/07 05:57:52;;;;;;;4.80;1.85;;;21.60;54.70;;;;;;5074619;28;20401;-61
2023/06/07 06:00:18;;;;;;;3.80;1.80;;;21.60;54.70;;;;;;5073898;28;20123;-61
2023/06/07 06:02:47;;;;;;;6.25;1.73;;;21.60;54.80;;;;;;5074627;28;20044;-61
2023/06/07 06:05:15;;;;;;;3.38;1.70;;;21.60;54.80;;;;;;5074019;28;20052;-61
2023/06/07 06:07:41;;;;;;;3.25;1.25;;;21.60;54.80;;;;;;5074076;28;20119;-61
2023/06/07 06:10:07;;;;;;;3.20;1.50;;;21.60;54.80;;;;;;5074175;28;20123;-62
2023/06/07 06:12:32;;;;;;;2.97;1.58;;;21.60;54.80;;;;;;5074882;28;20087;-61
2023/06/07 06:14:59;;;;;;;3.45;1.55;;;21.60;54.70;;;;;;5073846;28;20036;-61
2023/06/07 06:17:25;;;;;;;2.75;1.50;;;21.60;54.70;;;;;;5073968;28;20499;-62
2023/06/07 06:19:50;;;;;;;5.00;1.83;;;21.60;54.80;;;;;;5072260;28;20040;-61
2023/06/07 06:22:16;;;;;;;5.47;1.88;;;21.60;54.80;;;;;;5074028;28;20041;-61
2023/06/07 06:24:42;;;;;;;4.18;1.77;;;21.70;54.90;;;;;;5074321;28;20040;-62
2023/06/07 06:27:08;;;;;;;2.97;1.75;;;21.70;54.80;;;;;;5073025;28;20060;-62
2023/06/07 06:29:33;;;;;;;4.68;1.60;;;21.70;54.80;;;;;;5072693;28;20049;-61
2023/06/07 06:32:02;;;;;;;3.45;1.40;;;21.70;54.80;;;;;;5073700;28;20048;-63
2023/06/07 06:34:29;;;;;;;3.70;1.70;;;21.60;54.70;;;;;;5073150;28;20044;-61
2023/06/07 06:36:55;;;;;;;2.97;1.50;;;21.70;54.80;;;;;;5073816;28;20500;-61
2023/06/07 06:39:22;;;;;;;2.80;1.60;;;21.70;55.50;;;;;;5073751;28;20087;-61
2023/06/07 06:41:47;;;;;;;4.28;1.80;;;21.70;54.80;;;;;;5072978;28;20044;-61
2023/06/07 06:44:13;;;;;;;3.42;1.73;;;21.70;54.80;;;;;;5073772;28;20039;-61
2023/06/07 06:46:38;;;;;;;3.35;1.55;;;21.70;54.80;;;;;;5073988;28;20532;-61
2023/06/07 06:49:04;;;;;;;4.93;1.90;;;21.70;54.80;;;;;;5071637;28;20059;-62
2023/06/07 06:51:30;;;;;;;3.33;1.75;;;21.70;54.80;;;;;;5073444;28;20051;-61
2023/06/07 06:53:55;;;;;;;3.85;1.95;;;21.70;54.80;;;;;;5073546;28;20043;-61
2023/06/07 06:56:21;;;;;;;4.05;1.80;;;21.70;54.80;;;;;;5072627;28;20049;-61
2023/06/07 06:58:46;;;;;;;3.25;1.40;;;21.70;55.60;;;;;;5055669;28;20044;-61
2023/06/07 07:01:14;;;;;;;3.25;1.80;;;21.70;54.80;;;;;;5073382;28;20141;-61
2023/06/07 07:03:40;;;;;;;2.65;1.30;;;21.70;54.80;;;;;;5071576;28;20082;-61
2023/06/07 07:06:07;;;;;;;3.10;1.35;;;21.70;54.90;;;;;;5071983;28;20136;-61
2023/06/07 07:08:34;;;;;;;3.37;1.70;;;21.70;54.90;;;;;;5072170;28;20076;-61
2023/06/07 07:10:59;;;;;;;3.65;1.70;;;21.70;54.80;;;;;;5071286;28;20051;-61
2023/06/07 07:13:25;;;;;;;4.07;1.67;;;21.70;54.80;;;;;;5073026;28;20048;-61
2023/06/07 07:15:50;;;;;;;4.22;1.80;;;21.70;54.80;;;;;;5073297;28;20059;-61
2023/06/07 07:18:16;;;;;;;5.28;1.80;;;21.80;54.80;;;;;;5072117;28;20040;-61
2023/06/07 07:20:42;;;;;;;3.58;1.33;;;21.80;54.80;;;;;;5072938;28;20044;-61
2023/06/07 07:23:07;;;;;;;4.45;1.60;;;21.80;54.80;;;;;;5072210;28;20127;-62
2023/06/07 07:25:33;;;;;;;4.95;1.88;;;21.80;54.80;;;;;;5073221;28;20049;-61
2023/06/07 07:27:58;;;;;;;4.82;1.60;;;21.80;54.80;;;;;;5072877;28;20049;-61
2023/06/07 07:30:24;;;;;;;4.55;1.90;;;21.80;54.70;;;;;;5072197;28;20474;-61
2023/06/07 07:32:49;;;;;;;3.22;1.70;;;21.80;54.70;;;;;;5073157;28;20036;-61
2023/06/07 07:35:15;;;;;;;5.22;1.77;;;21.80;54.60;;;;;;5072903;28;20468;-61
2023/06/07 07:37:41;;;;;;;3.70;1.52;;;21.80;54.60;;;;;;5072348;28;20040;-61
2023/06/07 07:40:12;;;;;;;3.38;1.40;;;21.80;54.60;;;;;;5072780;28;20075;-61
2023/06/07 07:42:37;;;;;;;3.45;1.40;;;21.90;54.60;;;;;;5072796;28;20056;-61
2023/06/07 07:45:03;;;;;;;4.25;1.50;;;21.90;54.60;;;;;;5070210;28;20048;-61
2023/06/07 07:47:29;;;;;;;4.50;1.65;;;21.90;54.60;;;;;;5072678;28;20059;-61
2023/06/07 07:49:55;;;;;;;3.78;1.50;;;21.90;54.60;;;;;;5072794;28;20049;-61
2023/06/07 07:52:21;;;;;;;4.38;1.60;;;21.90;54.50;;;;;;5070378;28;20045;-61
2023/06/07 07:54:47;;;;;;;2.88;1.33;;;21.90;54.50;;;;;;5072995;28;20090;-61
2023/06/07 07:57:12;;;;;;;3.83;1.42;;;21.90;54.50;;;;;;5072672;28;20036;-61
2023/06/07 07:59:38;;;;;;;3.67;1.67;;;22.00;54.60;;;;;;5072227;28;20040;-62
2023/06/07 08:02:03;;;;;;;3.85;1.30;;;22.00;54.50;;;;;;5072679;28;20032;-61
2023/06/07 08:04:29;;;;;;;3.28;1.42;;;22.00;54.50;;;;;;5072159;28;20040;-61
2023/06/07 08:06:55;;;;;;;4.05;1.70;;;22.00;54.50;;;;;;5070483;28;20048;-61
2023/06/07 08:09:20;;;;;;;3.83;1.70;;;22.00;54.40;;;;;;5072407;28;20124;-61
2023/06/07 08:11:47;;;;;;;5.68;1.63;;;22.10;54.50;;;;;;5071229;28;20059;-61
2023/06/07 08:14:13;;;;;;;4.20;1.52;;;22.10;54.40;;;;;;5071765;28;20044;-62
2023/06/07 08:16:39;;;;;;;4.28;1.75;;;22.10;54.40;;;;;;5072445;28;20044;-61
2023/06/07 08:19:07;;;;;;;3.90;1.45;;;22.10;54.40;;;;;;5072389;28;20051;-61
2023/06/07 08:21:33;;;;;;;4.60;1.87;;;22.20;54.40;;;;;;5071780;28;20049;-61
2023/06/07 08:23:58;;;;;;;3.97;1.50;;;22.20;54.40;;;;;;5072465;28;20094;-61
2023/06/07 08:26:24;;;;;;;4.20;1.40;;;22.20;54.40;;;;;;5071424;28;20056;-61
2023/06/07 08:28:49;;;;;;;3.53;1.40;;;22.20;54.30;;;;;;5072643;28;20400;-61
2023/06/07 08:31:15;;;;;;;2.60;1.38;;;22.20;54.30;;;;;;5070728;28;20067;-61
2023/06/07 08:33:41;;;;;;;3.10;1.40;;;22.30;54.30;;;;;;5071601;28;20094;-61
2023/06/07 08:36:06;;;;;;;4.15;1.40;;;22.30;54.30;;;;;;5070576;28;20048;-61
2023/06/07 08:38:32;;;;;;;3.78;1.40;;;22.30;54.30;;;;;;5072508;28;20048;-61
2023/06/07 08:40:59;;;;;;;4.82;1.63;;;22.30;54.30;;;;;;5071742;28;20357;-61
2023/06/07 08:43:25;;;;;;;4.30;1.60;;;22.30;54.30;;;;;;5072288;28;20041;-61
2023/06/07 08:45:50;;;;;;;4.88;1.75;;;22.30;54.30;;;;;;5072546;28;20048;-61
2023/06/07 08:48:16;;;;;;;4.50;1.33;;;22.30;54.20;;;;;;5053154;28;20043;-61
2023/06/07 08:50:42;;;;;;;3.08;1.23;;;22.30;54.20;;;;;;5072102;28;20063;-61
2023/06/07 08:53:13;;;;;;;4.63;1.60;;;22.30;54.20;;;;;;5070678;28;20055;-61
2023/06/07 08:55:39;;;;;;;3.15;1.70;;;22.30;54.20;;;;;;5072406;28;20051;-61
2023/06/07 08:58:06;;;;;;;3.70;1.42;;;22.40;54.20;;;;;;5074667;28;20040;-61
2023/06/07 09:00:32;;;;;;;3.88;1.65;;;22.40;54.20;;;;;;5075946;28;20090;-61
2023/06/07 09:02:58;;;;;;;4.03;1.70;;;22.40;54.10;;;;;;5075155;28;20048;-62
2023/06/07 09:05:24;;;;;;;2.38;1.27;;;22.40;54.10;;;;;;5057827;28;20045;-61
2023/06/07 09:07:50;;;;;;;4.05;1.55;;;22.40;54.10;;;;;;5075682;28;20040;-62
2023/06/07 09:10:17;;;;;;;4.18;1.42;;;22.50;54.10;;;;;;5073245;28;20585;-61
2023/06/07 09:12:46;;;;;;;5.07;1.90;;;22.50;54.10;;;;;;5074251;28;20135;-61
2023/06/07 09:15:19;;;;;;;5.00;1.58;;;22.50;54.10;;;;;;5075471;28;20045;-61
2023/06/07 09:17:52;;;;;;;3.92;1.40;;;22.50;54.10;;;;;;5074869;28;20549;-61
2023/06/07 09:20:22;;;;;;;4.82;1.60;;;22.50;54.10;;;;;;5075385;28;20041;-62
2023/06/07 09:23:04;;;;;;;2.95;1.40;;;22.50;54.00;;;;;;5074621;28;20045;-62
2023/06/07 09:25:30;;;;;;;3.70;1.65;;;22.50;54.00;;;;;;5074100;28;20052;-61
2023/06/07 09:27:56;;;;;;;3.45;1.42;;;22.50;54.00;;;;;;5075045;28;20049;-62
2023/06/07 09:30:22;;;;;;;4.18;1.70;;;22.50;54.00;;;;;;5074345;28;20129;-62
2023/06/07 09:32:48;;;;;;;3.67;1.42;;;22.60;54.00;;;;;;5074173;28;20047;-61
2023/06/07 09:35:20;;;;;;;3.72;1.42;;;22.50;53.90;;;;;;5074939;28;20056;-62
2023/06/07 09:37:47;;;;;;;3.33;1.25;;;22.60;54.00;;;;;;5074441;28;20052;-62
2023/06/07 09:40:13;;;;;;;5.30;1.95;;;22.50;54.00;;;;;;5074831;28;20044;-62
2023/06/07 09:42:40;;;;;;;3.63;1.40;;;22.60;54.00;;;;;;5075173;28;20051;-62
2023/06/07 09:45:13;;;;;;;4.55;1.60;;;22.60;54.00;;;;;;5074202;28;20074;-62
2023/06/07 09:47:41;;;;;;;5.18;1.80;;;22.60;54.00;;;;;;5057235;28;20135;-62
2023/06/07 09:50:11;;;;;;;4.32;1.60;;;22.60;54.00;;;;;;5074758;28;20048;-61
2023/06/07 09:52:37;;;;;;;3.45;1.42;;;22.60;54.00;;;;;;5073976;28;20404;-61
2023/06/07 09:55:03;;;;;;;2.38;1.15;;;22.60;54.70;;;;;;5074952;28;20047;-62
2023/06/07 09:57:32;;;;;;;2.70;1.40;;;22.60;54.00;;;;;;5073498;28;20044;-61
2023/06/07 09:59:58;;;;;;;3.15;1.40;;;22.60;54.00;;;;;;5074210;28;20052;-62
2023/06/07 10:02:27;;;;;;;2.63;1.33;;;22.60;54.00;;;;;;5074686;28;20048;-61
2023/06/07 10:04:55;;;;;;;3.65;1.65;;;22.60;54.00;;;;;;5073714;28;20563;-61
2023/06/07 10:07:24;;;;;;;3.83;1.60;;;22.60;54.00;;;;;;5073275;28;20044;-61
2023/06/07 10:09:52;;;;;;;2.50;1.30;;;22.60;54.00;;;;;;5074656;28;20045;-62
2023/06/07 10:12:18;;;;;;;3.83;1.60;;;22.60;54.00;;;;;;5055659;28;20114;-61
2023/06/07 10:14:45;;;;;;;4.50;1.70;;;22.60;54.00;;;;;;5056690;28;20052;-62
2023/06/07 10:17:11;;;;;;;3.65;1.60;;;22.60;54.00;;;;;;5073200;28;20045;-62
2023/06/07 10:19:40;;;;;;;3.30;1.40;;;22.60;54.00;;;;;;5073592;28;20090;-62
2023/06/07 10:22:09;;;;;;;3.92;1.27;;;22.60;54.00;;;;;;5074023;28;20050;-62
2023/06/07 10:24:55;;;;;;;5.65;1.67;;;22.60;54.00;;;;;;5056886;28;20071;-63
2023/06/07 10:27:22;;;;;;;3.80;1.42;;;22.60;54.00;;;;;;5073093;28;20095;-63
2023/06/07 10:30:00;;;;;;;2.37;1.43;;;22.60;54.10;;;;;;5073064;28;20049;-61
2023/06/07 10:32:34;;;;;;;3.03;1.38;;;22.60;54.10;;;;;;5073637;28;20822;-61
2023/06/07 10:34:59;;;;;;;4.05;1.45;;;22.60;54.10;;;;;;5072447;28;20044;-61
2023/06/07 10:37:30;;;;;;;3.17;1.60;;;22.60;54.00;;;;;;5073699;28;20090;-61
2023/06/07 10:39:56;;;;;;;4.97;1.63;;;22.70;54.20;;;;;;5073002;28;20044;-61
2023/06/07 10:42:22;;;;;;;4.60;1.85;;;22.70;54.10;;;;;;5073087;28;20108;-61
2023/06/07 10:44:47;;;;;;;3.17;1.23;;;22.60;54.10;;;;;;5072507;28;20055;-60
2023/06/07 10:47:22;;;;;;;4.53;1.70;;;22.70;54.10;;;;;;5071398;28;20040;-62
2023/06/07 10:49:48;;;;;;;3.67;1.40;;;22.70;54.10;;;;;;5073557;28;20387;-61
2023/06/07 10:52:15;;;;;;;4.15;1.48;;;22.70;54.10;;;;;;5073192;28;20101;-62
2023/06/07 10:54:42;;;;;;;4.25;1.25;;;22.70;54.10;;;;;;5071543;28;20068;-62
2023/06/07 10:57:07;;;;;;;3.40;1.90;;;22.70;54.00;;;;;;5073249;28;20051;-62
2023/06/07 10:59:34;;;;;;;2.55;1.17;;;22.70;54.00;;;;;;5072455;28;20060;-62
2023/06/07 11:02:24;;;;;;;4.13;1.63;;;22.80;54.10;;;;;;5072935;28;20041;-62
2023/06/07 11:04:50;;;;;;;4.13;1.60;;;22.80;54.10;;;;;;5073648;28;20083;-62
2023/06/07 11:07:23;;;;;;;1.90;1.10;;;22.80;54.10;;;;;;5073108;28;20123;-62
2023/06/07 11:10:13;;;;;;;2.85;1.30;;;22.80;54.10;;;;;;5071248;28;20052;-62
2023/06/07 11:12:40;;;;;;;3.45;1.42;;;22.80;54.10;;;;;;5073213;28;20079;-62
2023/06/07 11:15:21;;;;;;;2.63;1.33;;;22.80;54.10;;;;;;5073004;28;20084;-62
2023/06/07 11:18:07;;;;;;;5.15;1.42;;;22.80;54.10;;;;;;5073084;28;20044;-62
2023/06/07 11:20:36;;;;;;;5.00;1.38;;;22.80;54.10;;;;;;5072824;28;20048;-62
2023/06/07 11:23:30;;;;;;;4.15;1.20;;;22.80;54.10;;;;;;5072636;28;20036;-62
2023/06/07 11:26:05;;;;;;;2.60;1.30;;;22.80;54.10;;;;;;5073285;28;20098;-63
2023/06/07 11:28:31;;;;;;;3.55;1.35;;;22.80;54.10;;;;;;5073241;28;20051;-63
2023/06/07 11:30:58;;;;;;;3.40;1.30;;;22.90;54.10;;;;;;5072014;28;20053;-61
2023/06/07 11:33:24;;;;;;;4.22;1.15;;;22.90;54.10;;;;;;5072623;28;20049;-61
2023/06/07 11:35:50;;;;;;;2.90;1.38;;;22.90;54.10;;;;;;5071724;28;20040;-62
2023/06/07 11:38:16;;;;;;;2.63;1.20;;;22.90;54.10;;;;;;5071948;28;20471;-62
2023/06/07 11:40:42;;;;;;;2.00;1.30;;;22.90;54.10;;;;;;5073106;28;20119;-62
2023/06/07 11:43:10;;;;;;;3.72;1.50;;;22.90;54.10;;;;;;5072650;28;20079;-62
2023/06/07 11:45:36;;;;;;;3.27;1.43;;;22.90;54.10;;;;;;5072196;28;20044;-62
2023/06/07 11:48:01;;;;;;;4.55;1.50;;;23.00;54.20;;;;;;5071742;28;20392;-62
2023/06/07 11:50:27;;;;;;;4.57;1.55;;;22.90;54.10;;;;;;5071604;28;20104;-62
2023/06/07 11:52:53;;;;;;;2.42;1.30;;;22.90;54.10;;;;;;5072957;28;20119;-62
2023/06/07 11:55:19;;;;;;;2.60;1.30;;;22.90;54.10;;;;;;5072372;28;20072;-62
2023/06/07 11:57:47;;;;;;;2.85;1.25;;;22.90;54.10;;;;;;5071841;28;20068;-62
2023/06/07 12:00:17;;;;;;;3.42;1.45;;;22.90;54.10;;;;;;5072415;28;20044;-62
2023/06/07 12:02:42;;;;;;;2.08;1.10;;;22.90;54.10;;;;;;5072806;28;20055;-62
2023/06/07 12:05:11;;;;;;;2.75;1.08;;;22.90;54.10;;;;;;5070371;28;20044;-62
2023/06/07 12:07:39;;;;;;;2.75;1.27;;;23.00;54.20;;;;;;5072473;28;20040;-62
2023/06/07 12:10:08;;;;;;;3.25;1.30;;;22.90;54.10;;;;;;5071504;28;20063;-62
2023/06/07 12:12:39;;;;;;;3.25;1.40;;;22.90;54.10;;;;;;5070378;28;20053;-62
2023/06/07 12:15:05;;;;;;;4.75;1.55;;;23.00;54.20;;;;;;5072723;28;20175;-62
2023/06/07 12:17:34;;;;;;;3.53;1.50;;;22.90;54.10;;;;;;5072672;28;20108;-62
2023/06/07 12:20:08;;;;;;;2.80;1.52;;;23.00;54.90;;;;;;5070513;28;20041;-62
2023/06/07 12:22:33;;;;;;;2.58;1.30;;;23.00;54.20;;;;;;5072326;28;20067;-62
2023/06/07 12:25:16;;;;;;;3.28;1.40;;;23.00;54.20;;;;;;5072345;28;20395;-62
2023/06/07 12:27:48;;;;;;;3.53;1.55;;;23.00;54.10;;;;;;5071515;28;20126;-62
2023/06/07 12:30:14;;;;;;;4.47;1.40;;;23.00;54.10;;;;;;5073361;28;20063;-62
2023/06/07 12:32:40;;;;;;;2.67;1.20;;;23.00;54.10;;;;;;5075493;28;20041;-62
2023/06/07 12:35:06;;;;;;;4.15;1.40;;;23.00;54.20;;;;;;5074854;28;20093;-62
2023/06/07 12:37:37;;;;;;;4.80;1.58;;;23.00;54.20;;;;;;5076004;28;20401;-62
2023/06/07 12:40:05;;;;;;;3.10;1.40;;;23.00;54.20;;;;;;5075703;28;20056;-62
2023/06/07 12:42:34;;;;;;;2.80;1.40;;;23.00;54.20;;;;;;5076460;28;20032;-62
2023/06/07 12:44:59;;;;;;;2.28;1.45;;;23.00;54.20;;;;;;5076218;28;20097;-62
2023/06/07 12:47:25;;;;;;;3.95;1.48;;;23.10;54.30;;;;;;5074034;28;20155;-62